KMKL

Mc Kellar-Sipes Regional Airport

Jackson, Tennessee, USA
METAR KMKL 220453Z AUTO 20007KT 10SM FEW085 FEW100 21/21 A2979 RMK AO2 SLP082 T02110211 $
Observed Flight Rules
Jun-22 @ 04:53 UTC (50 minutes ago) Visual Flight Rules
Wind Visibility Clouds
200° at 7 knots 10 miles
  • Few at 8,500' AGL
  • Few at 10,000' AGL
Temperatures Readings
Current 21°C / 70°F
Dewpoint 21°C / 70°F
Humidity 100%
Altimeter 29.79" Hg
Pressure 1008.2 hPa
Elevation 128
METAR KMKL 220453Z AUTO 20007KT 10SM FEW085 FEW100 21/21 A2979 RMK AO2 SLP082 T02110211 $
Observed Flight Rules
Jun-22 @ 04:53 UTC
(50 minutes ago)
VFR
Wind Visibility
200° at 7 knots 10 miles
Clouds
  • Few at 8,500' AGL
  • Few at 10,000' AGL
Temperature Dewpoint
21°C / 70°F 21°C / 70°F
Humidity Altimeter Pressure
100% 29.79" Hg 1008.2 hPa